Etusivu
METAR-TAF:

METAR-TAF

Lentoasemat :

Lannion, Ranska

Leveyspiiri: 48-45N, Pituuspiiri: 003-28W, korkeus merenpinnasta: 89 m

Tämänhetkinen sää

Tämä raportti tehtiin 19 minuuttia sitten, kello 14.30 UTC
Tuuli 9 kn idästä, vaihdellen koillisen ja idän/kaakon välillä
Lämpötila 16°C
Kosteus 68%
Ilmanpaine 1030 hPa
Näkyvyys 10 km tai enemmän
Muutamia pilviä 1700 ft:n korkeudessa

METAR: LFRO 201430Z AUTO 08009KT 040V110 9999 FEW017 16/10 Q1030 NOSIG

Aika: 16:49 (14:49 UTC)

Sääennuste

Tämä raportti tehtiin 3 tuntia ja 49 minuuttia sitten, kello 11.00 UTC
Ennuste voimassa 20. päivästä klo 12 UTC - 21. päivään klo 12 UTC
Tuuli 6 kn idästä
Näkyvyys 10 km tai enemmän
Hajanaisia pilviä 2500 ft:n korkeudessa
Ajoittain
21. päivästä klo 02 UTC - 21. päivään klo 08 UTC
Näkyvyys: 1500 m
Pilvistä 300 ft:n korkeudessa
utua

TAF: LFRO 201100Z 2012/2112 09006KT 9999 SCT025 TEMPO 2102/2108 1500 BR OVC003

Säähavainnot ja -ennusteet yli 4000 lentoasemalta (METAR- ja TAF-raportit).

Käytössä olevat sääasemat on merkitty karttaan keltaisilla ja punaisilla pisteillä.

Aseta hiiri pisteen päälle nähdäksesi sääaseman nimen.

Klikkaa sitten nähdäksesi säähavainnot ja -ennusteet.

Kartan vaihtaminen: klikkaa mustalla rastilla varustettuja vihreitä pisteitä, niin voit zoomata sisään; viivalla varustettua vihreää pistettä, niin voit zoomata ulos tai vihreitä nuolia, niin pääset viereisille kartoille.


METAR-TAF: